EDT,Max TemperatureF,Mean TemperatureF,Min TemperatureF,Max Dew PointF,MeanDew PointF,Min DewpointF,Max Humidity, Mean Humidity, Min Humidity, Max Sea Level PressureIn, Mean Sea Level PressureIn, Min Sea Level PressureIn, Max VisibilityMiles, Mean VisibilityMiles, Min VisibilityMiles, Max Wind SpeedMPH, Mean Wind SpeedMPH, Max Gust SpeedMPH,PrecipitationIn, CloudCover, Events, WindDirDegrees
2013-7-1,85,79,73,74,72,70,94,84,74,30.02,29.91,29.83,10,8,0,18,8,26,1.02,6,Fog-Rain,168
2013-7-2,82,77,72,75,72,70,94,90,85,30.19,30.12,30.00,10,9,1,22,7,29,0.54,6,Rain,159
2013-7-3,86,80,73,75,74,70,100,81,61,30.26,30.21,30.15,10,7,0,17,7,22,0.95,6,Fog-Rain-Thunderstorm,148
2013-7-4,90,82,74,75,73,69,100,76,52,30.28,30.24,30.17,10,7,0,18,9,23,0.00,5,Fog,146
2013-7-5,90,81,72,76,73,71,100,78,56,30.28,30.23,30.17,10,7,0,18,6,23,0.16,3,Fog-Rain,143
2013-7-6,90,80,70,75,71,68,100,76,52,30.25,30.20,30.12,10,7,0,17,6,22,0.06,2,Fog-Rain,159
2013-7-7,91,80,69,73,71,69,100,76,52,30.20,30.14,30.06,10,10,8,14,7,21,0.00,2,,192
2013-7-8,91,83,74,75,73,71,100,80,59,30.19,30.14,30.10,10,7,0,25,7,30,1.68,6,Fog-Rain-Thunderstorm,225
2013-7-9,88,81,74,76,74,72,94,84,74,30.17,30.13,30.07,10,9,2,16,5,21,0.28,4,Rain-Thunderstorm,188
2013-7-10,90,82,74,74,72,69,100,76,52,30.11,30.04,29.95,10,10,9,16,8,21,0.01,3,,194
2013-7-11,91,82,73,74,72,69,94,73,52,29.98,29.93,29.88,10,9,2,16,7,24,0.33,5,Rain,216
2013-7-12,79,76,72,73,72,70,94,87,79,29.99,29.92,29.86,10,8,1,10,3,13,0.67,7,Rain,123
2013-7-13,79,76,72,76,73,71,100,93,85,30.15,30.06,29.99,10,8,2,14,6,18,0.43,7,Rain,50
2013-7-14,89,80,70,75,72,69,100,78,55,30.28,30.23,30.15,10,8,0,24,6,30,0.11,3,Fog-Rain,81
2013-7-15,92,82,71,75,71,67,94,69,44,30.31,30.27,30.22,10,7,0,10,4,15,0.00,2,Fog,44
2013-7-16,96,85,73,74,71,67,93,69,44,30.27,30.22,30.16,10,10,10,8,3,15,0.00,0,,261
2013-7-17,94,85,76,76,73,70,94,70,46,30.20,30.15,30.09,10,10,8,12,4,15,0.00,2,,128
2013-7-18,94,85,76,76,73,69,94,72,49,30.13,30.10,30.04,10,9,5,13,5,17,0.00,5,Thunderstorm,225
2013-7-19,93,84,74,74,72,68,94,71,47,30.11,30.06,29.99,10,10,7,16,9,22,0.00,1,,205
2013-7-20,92,84,75,73,72,69,94,72,49,30.04,30.01,29.93,10,10,10,18,11,23,0.00,4,,209
2013-7-21,91,83,75,75,73,71,94,75,56,30.02,29.97,29.90,10,10,10,15,7,18,0.00,5,,215
2013-7-22,92,84,75,74,73,71,94,75,56,29.97,29.91,29.83,10,9,6,17,8,21,0.00,4,,220
2013-7-23,92,84,75,73,71,67,88,68,47,29.85,29.80,29.73,10,10,9,17,9,21,T,3,,237
2013-7-24,94,83,72,73,70,66,93,70,46,29.84,29.77,29.73,10,8,0,35,6,46,0.59,2,Rain-Thunderstorm,202
2013-7-25,85,78,70,72,70,68,100,81,61,30.01,29.87,29.77,10,9,5,14,7,21,0.01,4,Thunderstorm,17
2013-7-26,89,78,66,70,66,61,100,72,43,30.09,30.04,30.00,10,8,2,8,4,12,0.00,0,,66
2013-7-27,89,79,68,71,68,66,93,72,50,30.05,30.00,29.92,10,7,1,18,4,24,0.17,1,Rain,152
2013-7-28,89,81,72,73,71,70,93,74,55,29.99,29.94,29.91,10,9,6,13,6,16,0.03,2,Rain-Thunderstorm,199
2013-7-29,91,81,71,74,72,66,100,75,50,30.15,30.07,29.99,10,8,2,20,5,24,0.06,5,Rain-Thunderstorm,258
2013-7-30,90,80,69,70,67,62,100,72,43,30.19,30.14,30.11,10,10,7,10,4,14,0.00,0,,29
2013-7-31,86,79,72,74,71,66,100,81,61,30.15,30.08,30.00,10,8,3,14,5,16,T,3,,152